sensor_id;sensor_type;location;lat;lon;timestamp;temperature;humidity
13744;DHT22;6943;52.368;9.966;2023-04-06T00:00:25;1.50;99.90
13744;DHT22;6943;52.368;9.966;2023-04-06T00:02:51;1.40;1.00
13744;DHT22;6943;52.368;9.966;2023-04-06T00:05:21;1.30;1.00
13744;DHT22;6943;52.368;9.966;2023-04-06T00:07:48;1.20;1.00
13744;DHT22;6943;52.368;9.966;2023-04-06T00:10:13;1.30;1.00
13744;DHT22;6943;52.368;9.966;2023-04-06T00:12:39;1.30;1.00
13744;DHT22;6943;52.368;9.966;2023-04-06T00:15:05;1.30;1.00
13744;DHT22;6943;52.368;9.966;2023-04-06T00:17:31;1.30;1.00
13744;DHT22;6943;52.368;9.966;2023-04-06T00:19:56;1.20;1.00
13744;DHT22;6943;52.368;9.966;2023-04-06T00:22:22;1.10;1.00
13744;DHT22;6943;52.368;9.966;2023-04-06T00:24:47;1.10;1.00
13744;DHT22;6943;52.368;9.966;2023-04-06T00:27:13;1.10;1.00
13744;DHT22;6943;52.368;9.966;2023-04-06T00:29:39;1.10;1.00
13744;DHT22;6943;52.368;9.966;2023-04-06T00:32:05;1.20;1.00
13744;DHT22;6943;52.368;9.966;2023-04-06T00:34:30;1.20;1.00
13744;DHT22;6943;52.368;9.966;2023-04-06T00:36:56;1.20;1.00
13744;DHT22;6943;52.368;9.966;2023-04-06T00:39:21;1.20;1.00
13744;DHT22;6943;52.368;9.966;2023-04-06T00:41:51;1.20;1.00
13744;DHT22;6943;52.368;9.966;2023-04-06T00:44:18;1.20;1.00
13744;DHT22;6943;52.368;9.966;2023-04-06T00:46:44;1.20;1.00
13744;DHT22;6943;52.368;9.966;2023-04-06T00:49:09;1.20;1.00
13744;DHT22;6943;52.368;9.966;2023-04-06T00:51:35;1.10;1.00
13744;DHT22;6943;52.368;9.966;2023-04-06T00:54:01;1.10;1.00
13744;DHT22;6943;52.368;9.966;2023-04-06T00:56:26;1.00;1.00
13744;DHT22;6943;52.368;9.966;2023-04-06T00:58:52;1.10;1.00
13744;DHT22;6943;52.368;9.966;2023-04-06T01:01:18;1.10;1.00
13744;DHT22;6943;52.368;9.966;2023-04-06T01:03:43;1.10;1.00
13744;DHT22;6943;52.368;9.966;2023-04-06T01:06:12;1.10;1.00
13744;DHT22;6943;52.368;9.966;2023-04-06T01:08:38;1.00;1.00
13744;DHT22;6943;52.368;9.966;2023-04-06T01:11:03;0.90;1.00
13744;DHT22;6943;52.368;9.966;2023-04-06T01:13:29;0.80;1.00
13744;DHT22;6943;52.368;9.966;2023-04-06T01:15:54;0.80;1.00
13744;DHT22;6943;52.368;9.966;2023-04-06T01:18:26;0.80;1.00
13744;DHT22;6943;52.368;9.966;2023-04-06T01:20:51;0.70;1.00
13744;DHT22;6943;52.368;9.966;2023-04-06T01:23:17;0.80;1.00
13744;DHT22;6943;52.368;9.966;2023-04-06T01:25:42;0.80;1.00
13744;DHT22;6943;52.368;9.966;2023-04-06T01:28:08;0.80;1.00
13744;DHT22;6943;52.368;9.966;2023-04-06T01:30:33;0.80;1.00
13744;DHT22;6943;52.368;9.966;2023-04-06T01:32:59;0.70;1.00
13744;DHT22;6943;52.368;9.966;2023-04-06T01:35:26;-0.20;1.00
13744;DHT22;6943;52.368;9.966;2023-04-06T01:37:52;0.70;1.00
13744;DHT22;6943;52.368;9.966;2023-04-06T01:40:17;0.60;1.00
13744;DHT22;6943;52.368;9.966;2023-04-06T01:42:43;0.50;1.00
13744;DHT22;6943;52.368;9.966;2023-04-06T01:45:08;0.50;1.00
13744;DHT22;6943;52.368;9.966;2023-04-06T01:47:34;0.40;1.00
13744;DHT22;6943;52.368;9.966;2023-04-06T01:50:00;0.30;1.00
13744;DHT22;6943;52.368;9.966;2023-04-06T01:52:25;0.40;85.90
13744;DHT22;6943;52.368;9.966;2023-04-06T01:54:51;0.30;82.10
13744;DHT22;6943;52.368;9.966;2023-04-06T01:57:16;0.30;99.90
13744;DHT22;6943;52.368;9.966;2023-04-06T01:59:42;0.30;99.90
13744;DHT22;6943;52.368;9.966;2023-04-06T02:02:07;0.30;99.90
13744;DHT22;6943;52.368;9.966;2023-04-06T02:04:32;0.30;99.90
13744;DHT22;6943;52.368;9.966;2023-04-06T02:06:58;0.30;99.90
13744;DHT22;6943;52.368;9.966;2023-04-06T02:09:23;0.30;99.90
13744;DHT22;6943;52.368;9.966;2023-04-06T02:11:49;0.30;99.90
13744;DHT22;6943;52.368;9.966;2023-04-06T02:14:14;0.30;99.90
13744;DHT22;6943;52.368;9.966;2023-04-06T02:16:40;0.30;99.90
13744;DHT22;6943;52.368;9.966;2023-04-06T02:19:05;0.30;99.90
13744;DHT22;6943;52.368;9.966;2023-04-06T02:21:31;0.30;99.90
13744;DHT22;6943;52.368;9.966;2023-04-06T02:23:56;0.30;99.90
13744;DHT22;6943;52.368;9.966;2023-04-06T02:26:22;0.30;99.90
13744;DHT22;6943;52.368;9.966;2023-04-06T02:28:47;0.30;99.90
13744;DHT22;6943;52.368;9.966;2023-04-06T02:31:13;0.30;99.90
13744;DHT22;6943;52.368;9.966;2023-04-06T02:33:40;0.20;99.90
13744;DHT22;6943;52.368;9.966;2023-04-06T02:36:05;0.20;1.00
13744;DHT22;6943;52.368;9.966;2023-04-06T02:38:31;0.10;1.00
13744;DHT22;6943;52.368;9.966;2023-04-06T02:40:56;0.10;1.00
13744;DHT22;6943;52.368;9.966;2023-04-06T02:43:22;0.10;1.00
13744;DHT22;6943;52.368;9.966;2023-04-06T02:45:47;0.10;1.00
13744;DHT22;6943;52.368;9.966;2023-04-06T02:48:13;0.00;1.00
13744;DHT22;6943;52.368;9.966;2023-04-06T02:50:38;0.00;1.00
13744;DHT22;6943;52.368;9.966;2023-04-06T02:53:04;-0.10;1.00
13744;DHT22;6943;52.368;9.966;2023-04-06T02:55:29;-0.10;1.00
13744;DHT22;6943;52.368;9.966;2023-04-06T02:57:55;-0.10;1.00
13744;DHT22;6943;52.368;9.966;2023-04-06T03:00:20;-0.20;1.00
13744;DHT22;6943;52.368;9.966;2023-04-06T03:02:46;-0.20;1.00
13744;DHT22;6943;52.368;9.966;2023-04-06T03:05:11;-0.20;1.00
13744;DHT22;6943;52.368;9.966;2023-04-06T03:07:37;-0.30;1.00
13744;DHT22;6943;52.368;9.966;2023-04-06T03:10:02;-0.30;1.00
13744;DHT22;6943;52.368;9.966;2023-04-06T03:12:28;-0.30;1.00
13744;DHT22;6943;52.368;9.966;2023-04-06T03:14:53;-0.30;1.00
13744;DHT22;6943;52.368;9.966;2023-04-06T03:17:19;-0.30;1.00
13744;DHT22;6943;52.368;9.966;2023-04-06T03:19:44;-0.40;1.00
13744;DHT22;6943;52.368;9.966;2023-04-06T03:22:10;-0.40;1.00
13744;DHT22;6943;52.368;9.966;2023-04-06T03:24:35;-0.50;1.00
13744;DHT22;6943;52.368;9.966;2023-04-06T03:27:01;-0.50;1.00
13744;DHT22;6943;52.368;9.966;2023-04-06T03:29:26;-0.60;1.00
13744;DHT22;6943;52.368;9.966;2023-04-06T03:31:52;-0.60;1.00
13744;DHT22;6943;52.368;9.966;2023-04-06T03:34:17;-0.60;1.00
13744;DHT22;6943;52.368;9.966;2023-04-06T03:36:43;-0.60;1.00
13744;DHT22;6943;52.368;9.966;2023-04-06T03:39:08;-0.60;1.00
13744;DHT22;6943;52.368;9.966;2023-04-06T03:41:34;-0.70;1.00
13744;DHT22;6943;52.368;9.966;2023-04-06T03:43:59;-0.70;1.00
13744;DHT22;6943;52.368;9.966;2023-04-06T03:46:25;-0.70;1.00
13744;DHT22;6943;52.368;9.966;2023-04-06T03:48:50;-0.60;1.00
13744;DHT22;6943;52.368;9.966;2023-04-06T03:51:16;-0.60;1.00
13744;DHT22;6943;52.368;9.966;2023-04-06T03:53:41;-0.60;1.00
13744;DHT22;6943;52.368;9.966;2023-04-06T03:56:07;-0.60;1.00
13744;DHT22;6943;52.368;9.966;2023-04-06T03:58:32;0.10;1.00
13744;DHT22;6943;52.368;9.966;2023-04-06T04:00:58;-0.50;1.00
13744;DHT22;6943;52.368;9.966;2023-04-06T04:03:23;-0.50;1.00
13744;DHT22;6943;52.368;9.966;2023-04-06T04:05:51;-0.60;1.00
13744;DHT22;6943;52.368;9.966;2023-04-06T04:08:16;-0.60;1.00
13744;DHT22;6943;52.368;9.966;2023-04-06T04:10:42;-0.60;1.00
13744;DHT22;6943;52.368;9.966;2023-04-06T04:13:07;-0.60;1.00
13744;DHT22;6943;52.368;9.966;2023-04-06T04:15:33;-0.50;1.00
13744;DHT22;6943;52.368;9.966;2023-04-06T04:17:58;-0.60;1.00
13744;DHT22;6943;52.368;9.966;2023-04-06T04:20:23;-0.60;1.00
13744;DHT22;6943;52.368;9.966;2023-04-06T04:22:49;-0.60;1.00
13744;DHT22;6943;52.368;9.966;2023-04-06T04:25:14;-0.60;1.00
13744;DHT22;6943;52.368;9.966;2023-04-06T04:27:40;-0.60;1.00
13744;DHT22;6943;52.368;9.966;2023-04-06T04:30:06;-0.60;1.00
13744;DHT22;6943;52.368;9.966;2023-04-06T04:32:32;-0.60;1.00
13744;DHT22;6943;52.368;9.966;2023-04-06T04:34:57;-0.50;1.00
13744;DHT22;6943;52.368;9.966;2023-04-06T04:37:22;-0.60;1.00
13744;DHT22;6943;52.368;9.966;2023-04-06T04:39:48;-0.60;1.00
13744;DHT22;6943;52.368;9.966;2023-04-06T04:42:13;-0.60;1.00
13744;DHT22;6943;52.368;9.966;2023-04-06T04:44:39;-0.60;1.00
13744;DHT22;6943;52.368;9.966;2023-04-06T04:47:05;-0.60;1.00
13744;DHT22;6943;52.368;9.966;2023-04-06T04:49:31;-0.60;1.00
13744;DHT22;6943;52.368;9.966;2023-04-06T04:51:56;-0.50;1.00
13744;DHT22;6943;52.368;9.966;2023-04-06T04:54:22;-0.40;1.00
13744;DHT22;6943;52.368;9.966;2023-04-06T04:56:47;-0.30;1.00
13744;DHT22;6943;52.368;9.966;2023-04-06T04:59:13;-0.30;99.90
13744;DHT22;6943;52.368;9.966;2023-04-06T05:01:38;-0.40;99.90
13744;DHT22;6943;52.368;9.966;2023-04-06T05:04:04;-0.30;99.90
13744;DHT22;6943;52.368;9.966;2023-04-06T05:06:29;-0.10;99.90
13744;DHT22;6943;52.368;9.966;2023-04-06T05:08:55;0.00;99.90
13744;DHT22;6943;52.368;9.966;2023-04-06T05:11:21;0.20;17.60
13744;DHT22;6943;52.368;9.966;2023-04-06T05:13:46;0.50;1.00
13744;DHT22;6943;52.368;9.966;2023-04-06T05:16:12;1.00;1.00
13744;DHT22;6943;52.368;9.966;2023-04-06T05:18:37;1.70;99.90
13744;DHT22;6943;52.368;9.966;2023-04-06T05:21:03;2.60;1.00
13744;DHT22;6943;52.368;9.966;2023-04-06T05:23:28;3.20;1.00
13744;DHT22;6943;52.368;9.966;2023-04-06T05:25:54;3.50;1.00
13744;DHT22;6943;52.368;9.966;2023-04-06T05:28:19;4.00;1.00
13744;DHT22;6943;52.368;9.966;2023-04-06T05:30:45;4.50;99.90
13744;DHT22;6943;52.368;9.966;2023-04-06T05:33:11;4.70;99.90
13744;DHT22;6943;52.368;9.966;2023-04-06T05:35:37;4.80;99.90
13744;DHT22;6943;52.368;9.966;2023-04-06T05:38:02;5.10;99.90
13744;DHT22;6943;52.368;9.966;2023-04-06T05:40:28;5.60;99.90
13744;DHT22;6943;52.368;9.966;2023-04-06T05:42:53;5.80;99.90
13744;DHT22;6943;52.368;9.966;2023-04-06T05:45:19;5.90;99.90
13744;DHT22;6943;52.368;9.966;2023-04-06T05:47:46;6.40;99.90
13744;DHT22;6943;52.368;9.966;2023-04-06T05:50:12;6.50;99.90
13744;DHT22;6943;52.368;9.966;2023-04-06T05:52:37;7.00;99.90
13744;DHT22;6943;52.368;9.966;2023-04-06T05:55:03;7.30;99.90
13744;DHT22;6943;52.368;9.966;2023-04-06T05:57:29;7.30;99.90
13744;DHT22;6943;52.368;9.966;2023-04-06T05:59:54;7.80;99.90
13744;DHT22;6943;52.368;9.966;2023-04-06T06:02:20;8.40;99.90
13744;DHT22;6943;52.368;9.966;2023-04-06T06:04:46;9.20;99.90
13744;DHT22;6943;52.368;9.966;2023-04-06T06:07:12;9.10;99.90
13744;DHT22;6943;52.368;9.966;2023-04-06T06:09:37;9.60;99.90
13744;DHT22;6943;52.368;9.966;2023-04-06T06:12:02;9.90;99.90
13744;DHT22;6943;52.368;9.966;2023-04-06T06:14:28;10.20;99.90
13744;DHT22;6943;52.368;9.966;2023-04-06T06:16:54;10.50;99.90
13744;DHT22;6943;52.368;9.966;2023-04-06T06:19:19;10.30;99.90
13744;DHT22;6943;52.368;9.966;2023-04-06T06:21:45;10.50;99.90
13744;DHT22;6943;52.368;9.966;2023-04-06T06:24:10;11.00;99.90
13744;DHT22;6943;52.368;9.966;2023-04-06T06:26:36;11.30;99.90
13744;DHT22;6943;52.368;9.966;2023-04-06T06:29:03;11.30;99.90
13744;DHT22;6943;52.368;9.966;2023-04-06T06:31:30;11.60;99.90
13744;DHT22;6943;52.368;9.966;2023-04-06T06:33:55;13.00;99.90
13744;DHT22;6943;52.368;9.966;2023-04-06T06:36:21;12.40;99.90
13744;DHT22;6943;52.368;9.966;2023-04-06T06:38:46;11.70;99.90
13744;DHT22;6943;52.368;9.966;2023-04-06T06:41:12;11.50;99.90
13744;DHT22;6943;52.368;9.966;2023-04-06T06:43:37;11.60;99.90
13744;DHT22;6943;52.368;9.966;2023-04-06T06:46:03;12.00;99.90
13744;DHT22;6943;52.368;9.966;2023-04-06T06:48:29;13.00;99.90
13744;DHT22;6943;52.368;9.966;2023-04-06T06:50:55;13.10;99.90
13744;DHT22;6943;52.368;9.966;2023-04-06T06:53:21;13.60;99.90
13744;DHT22;6943;52.368;9.966;2023-04-06T06:55:47;13.00;99.90
13744;DHT22;6943;52.368;9.966;2023-04-06T06:58:14;13.60;99.90
13744;DHT22;6943;52.368;9.966;2023-04-06T07:00:40;13.80;99.90
13744;DHT22;6943;52.368;9.966;2023-04-06T07:03:05;13.50;99.90
13744;DHT22;6943;52.368;9.966;2023-04-06T07:05:30;14.30;99.90
13744;DHT22;6943;52.368;9.966;2023-04-06T07:07:56;14.60;99.90
13744;DHT22;6943;52.368;9.966;2023-04-06T07:10:22;15.10;99.90
13744;DHT22;6943;52.368;9.966;2023-04-06T07:12:47;15.70;99.90
13744;DHT22;6943;52.368;9.966;2023-04-06T07:15:13;14.60;99.90
13744;DHT22;6943;52.368;9.966;2023-04-06T07:17:39;14.00;99.90
13744;DHT22;6943;52.368;9.966;2023-04-06T07:20:06;13.90;99.90
13744;DHT22;6943;52.368;9.966;2023-04-06T07:22:32;13.60;99.90
13744;DHT22;6943;52.368;9.966;2023-04-06T07:24:57;14.10;99.90
13744;DHT22;6943;52.368;9.966;2023-04-06T07:27:23;14.80;99.90
13744;DHT22;6943;52.368;9.966;2023-04-06T07:29:48;14.90;99.90
13744;DHT22;6943;52.368;9.966;2023-04-06T07:32:14;14.80;99.90
13744;DHT22;6943;52.368;9.966;2023-04-06T07:34:40;15.10;99.90
13744;DHT22;6943;52.368;9.966;2023-04-06T07:37:05;15.20;99.90
13744;DHT22;6943;52.368;9.966;2023-04-06T07:39:30;15.00;99.90
13744;DHT22;6943;52.368;9.966;2023-04-06T07:41:56;14.70;99.90
13744;DHT22;6943;52.368;9.966;2023-04-06T07:44:21;14.90;99.90
13744;DHT22;6943;52.368;9.966;2023-04-06T07:46:47;15.20;99.90
13744;DHT22;6943;52.368;9.966;2023-04-06T07:49:12;15.30;99.90
13744;DHT22;6943;52.368;9.966;2023-04-06T07:51:39;14.80;99.90
13744;DHT22;6943;52.368;9.966;2023-04-06T07:54:05;15.80;99.90
13744;DHT22;6943;52.368;9.966;2023-04-06T07:56:31;15.50;99.90
13744;DHT22;6943;52.368;9.966;2023-04-06T07:58:56;15.20;99.90
13744;DHT22;6943;52.368;9.966;2023-04-06T08:01:23;15.20;99.90
13744;DHT22;6943;52.368;9.966;2023-04-06T08:03:49;14.40;99.90
13744;DHT22;6943;52.368;9.966;2023-04-06T08:06:15;14.50;99.90
13744;DHT22;6943;52.368;9.966;2023-04-06T08:08:42;14.90;99.90
13744;DHT22;6943;52.368;9.966;2023-04-06T08:11:09;14.90;99.90
13744;DHT22;6943;52.368;9.966;2023-04-06T08:13:35;14.90;99.90
13744;DHT22;6943;52.368;9.966;2023-04-06T08:16:01;14.40;99.90
13744;DHT22;6943;52.368;9.966;2023-04-06T08:18:26;14.60;99.90
13744;DHT22;6943;52.368;9.966;2023-04-06T08:20:52;14.40;99.90
13744;DHT22;6943;52.368;9.966;2023-04-06T08:23:17;14.50;99.90
13744;DHT22;6943;52.368;9.966;2023-04-06T08:25:43;15.10;99.90
13744;DHT22;6943;52.368;9.966;2023-04-06T08:28:09;14.90;99.90
13744;DHT22;6943;52.368;9.966;2023-04-06T08:30:35;14.10;99.90
13744;DHT22;6943;52.368;9.966;2023-04-06T08:33:00;12.90;99.90
13744;DHT22;6943;52.368;9.966;2023-04-06T08:35:27;13.90;99.90
13744;DHT22;6943;52.368;9.966;2023-04-06T08:37:52;13.80;99.90
13744;DHT22;6943;52.368;9.966;2023-04-06T08:40:20;14.40;99.90
13744;DHT22;6943;52.368;9.966;2023-04-06T08:42:50;15.10;99.90
13744;DHT22;6943;52.368;9.966;2023-04-06T08:45:17;15.60;99.90
13744;DHT22;6943;52.368;9.966;2023-04-06T08:47:47;15.30;99.90
13744;DHT22;6943;52.368;9.966;2023-04-06T08:50:14;15.10;99.90
13744;DHT22;6943;52.368;9.966;2023-04-06T08:52:43;15.00;99.90
13744;DHT22;6943;52.368;9.966;2023-04-06T08:55:08;15.10;99.90
13744;DHT22;6943;52.368;9.966;2023-04-06T08:57:35;15.50;99.90
13744;DHT22;6943;52.368;9.966;2023-04-06T09:00:02;14.60;99.90
13744;DHT22;6943;52.368;9.966;2023-04-06T09:02:27;14.60;99.90
13744;DHT22;6943;52.368;9.966;2023-04-06T09:04:53;15.10;99.90
13744;DHT22;6943;52.368;9.966;2023-04-06T09:07:20;14.40;99.90
13744;DHT22;6943;52.368;9.966;2023-04-06T09:09:46;14.30;99.90
13744;DHT22;6943;52.368;9.966;2023-04-06T09:12:30;14.40;99.90
13744;DHT22;6943;52.368;9.966;2023-04-06T09:14:57;14.30;99.90
13744;DHT22;6943;52.368;9.966;2023-04-06T09:17:32;13.90;99.90
13744;DHT22;6943;52.368;9.966;2023-04-06T09:20:00;13.70;99.90
13744;DHT22;6943;52.368;9.966;2023-04-06T09:22:34;12.90;99.90
13744;DHT22;6943;52.368;9.966;2023-04-06T09:25:00;12.50;99.90
13744;DHT22;6943;52.368;9.966;2023-04-06T09:27:36;11.90;99.90
13744;DHT22;6943;52.368;9.966;2023-04-06T09:32:31;11.40;99.90
13744;DHT22;6943;52.368;9.966;2023-04-06T09:35:09;10.70;99.90
13744;DHT22;6943;52.368;9.966;2023-04-06T09:37:35;10.40;99.90
13744;DHT22;6943;52.368;9.966;2023-04-06T09:40:05;10.00;99.90
13744;DHT22;6943;52.368;9.966;2023-04-06T09:42:31;9.90;99.90
13744;DHT22;6943;52.368;9.966;2023-04-06T09:44:57;10.10;99.90
13744;DHT22;6943;52.368;9.966;2023-04-06T09:47:22;10.00;99.90
13744;DHT22;6943;52.368;9.966;2023-04-06T09:49:50;9.90;99.90
13744;DHT22;6943;52.368;9.966;2023-04-06T09:52:18;10.10;99.90
13744;DHT22;6943;52.368;9.966;2023-04-06T09:54:49;10.10;99.90
13744;DHT22;6943;52.368;9.966;2023-04-06T09:57:52;10.20;99.90
13744;DHT22;6943;52.368;9.966;2023-04-06T10:00:22;10.30;99.90
13744;DHT22;6943;52.368;9.966;2023-04-06T10:02:58;10.70;99.90
13744;DHT22;6943;52.368;9.966;2023-04-06T10:05:40;10.70;99.90
13744;DHT22;6943;52.368;9.966;2023-04-06T10:08:09;10.60;99.90
13744;DHT22;6943;52.368;9.966;2023-04-06T10:10:36;10.90;99.90
13744;DHT22;6943;52.368;9.966;2023-04-06T10:13:02;11.10;99.90
13744;DHT22;6943;52.368;9.966;2023-04-06T10:15:29;11.10;99.90
13744;DHT22;6943;52.368;9.966;2023-04-06T10:17:56;11.20;99.90
13744;DHT22;6943;52.368;9.966;2023-04-06T10:20:29;11.10;99.90
13744;DHT22;6943;52.368;9.966;2023-04-06T10:23:09;11.10;99.90
13744;DHT22;6943;52.368;9.966;2023-04-06T10:25:55;10.80;99.90
13744;DHT22;6943;52.368;9.966;2023-04-06T10:28:21;10.80;99.90
13744;DHT22;6943;52.368;9.966;2023-04-06T10:30:47;10.90;99.90
13744;DHT22;6943;52.368;9.966;2023-04-06T10:33:17;11.20;99.90
13744;DHT22;6943;52.368;9.966;2023-04-06T10:35:43;11.20;99.90
13744;DHT22;6943;52.368;9.966;2023-04-06T10:38:09;11.10;99.90
13744;DHT22;6943;52.368;9.966;2023-04-06T10:40:38;11.30;99.90
13744;DHT22;6943;52.368;9.966;2023-04-06T10:43:09;11.30;99.90
13744;DHT22;6943;52.368;9.966;2023-04-06T10:45:35;11.40;99.90
13744;DHT22;6943;52.368;9.966;2023-04-06T10:48:18;11.40;99.90
13744;DHT22;6943;52.368;9.966;2023-04-06T10:50:46;11.50;99.90
13744;DHT22;6943;52.368;9.966;2023-04-06T10:53:24;11.80;99.90
13744;DHT22;6943;52.368;9.966;2023-04-06T10:55:51;11.90;99.90
13744;DHT22;6943;52.368;9.966;2023-04-06T10:58:17;11.80;99.90
13744;DHT22;6943;52.368;9.966;2023-04-06T11:00:47;11.70;99.90
13744;DHT22;6943;52.368;9.966;2023-04-06T11:03:13;11.70;99.90
13744;DHT22;6943;52.368;9.966;2023-04-06T11:05:46;11.70;99.90
13744;DHT22;6943;52.368;9.966;2023-04-06T11:08:26;11.60;99.90
13744;DHT22;6943;52.368;9.966;2023-04-06T11:10:52;11.50;99.90
13744;DHT22;6943;52.368;9.966;2023-04-06T11:13:17;11.50;99.90
13744;DHT22;6943;52.368;9.966;2023-04-06T11:15:43;11.50;99.90
13744;DHT22;6943;52.368;9.966;2023-04-06T11:18:09;11.60;99.90
13744;DHT22;6943;52.368;9.966;2023-04-06T11:20:36;11.60;99.90
13744;DHT22;6943;52.368;9.966;2023-04-06T11:23:01;12.40;99.90
13744;DHT22;6943;52.368;9.966;2023-04-06T11:25:28;12.20;99.90
13744;DHT22;6943;52.368;9.966;2023-04-06T11:27:56;12.10;99.90
13744;DHT22;6943;52.368;9.966;2023-04-06T11:30:22;12.10;99.90
13744;DHT22;6943;52.368;9.966;2023-04-06T11:32:48;12.10;99.90
13744;DHT22;6943;52.368;9.966;2023-04-06T11:35:21;12.30;99.90
13744;DHT22;6943;52.368;9.966;2023-04-06T11:37:49;12.30;99.90
13744;DHT22;6943;52.368;9.966;2023-04-06T11:40:15;12.10;99.90
13744;DHT22;6943;52.368;9.966;2023-04-06T11:42:41;12.10;99.90
13744;DHT22;6943;52.368;9.966;2023-04-06T11:45:07;12.20;99.90
13744;DHT22;6943;52.368;9.966;2023-04-06T11:47:36;12.10;99.90
13744;DHT22;6943;52.368;9.966;2023-04-06T11:50:11;12.30;99.90
13744;DHT22;6943;52.368;9.966;2023-04-06T11:52:39;12.10;99.90
13744;DHT22;6943;52.368;9.966;2023-04-06T11:55:16;12.00;99.90
13744;DHT22;6943;52.368;9.966;2023-04-06T11:57:42;12.20;99.90
13744;DHT22;6943;52.368;9.966;2023-04-06T12:00:09;12.30;99.90
13744;DHT22;6943;52.368;9.966;2023-04-06T12:02:35;11.90;99.90
13744;DHT22;6943;52.368;9.966;2023-04-06T12:05:02;11.80;99.90
13744;DHT22;6943;52.368;9.966;2023-04-06T12:07:29;12.00;99.90
13744;DHT22;6943;52.368;9.966;2023-04-06T12:09:55;12.10;99.90
13744;DHT22;6943;52.368;9.966;2023-04-06T12:12:21;12.40;99.90
13744;DHT22;6943;52.368;9.966;2023-04-06T12:14:46;12.50;99.90
13744;DHT22;6943;52.368;9.966;2023-04-06T12:17:12;12.50;99.90
13744;DHT22;6943;52.368;9.966;2023-04-06T12:19:37;12.30;99.90
13744;DHT22;6943;52.368;9.966;2023-04-06T12:22:02;12.20;99.90
13744;DHT22;6943;52.368;9.966;2023-04-06T12:24:28;12.40;99.90
13744;DHT22;6943;52.368;9.966;2023-04-06T12:26:54;12.50;99.90
13744;DHT22;6943;52.368;9.966;2023-04-06T12:29:20;12.60;99.90
13744;DHT22;6943;52.368;9.966;2023-04-06T12:31:45;12.60;99.90
13744;DHT22;6943;52.368;9.966;2023-04-06T12:34:11;12.60;99.90
13744;DHT22;6943;52.368;9.966;2023-04-06T12:36:37;12.70;99.90
13744;DHT22;6943;52.368;9.966;2023-04-06T12:39:04;12.80;99.90
13744;DHT22;6943;52.368;9.966;2023-04-06T12:41:30;12.70;99.90
13744;DHT22;6943;52.368;9.966;2023-04-06T12:43:55;12.80;99.90
13744;DHT22;6943;52.368;9.966;2023-04-06T12:46:22;12.80;99.90
13744;DHT22;6943;52.368;9.966;2023-04-06T12:48:48;12.70;99.90
13744;DHT22;6943;52.368;9.966;2023-04-06T12:51:13;12.50;99.90
13744;DHT22;6943;52.368;9.966;2023-04-06T12:53:39;12.70;99.90
13744;DHT22;6943;52.368;9.966;2023-04-06T12:56:16;12.80;99.90
13744;DHT22;6943;52.368;9.966;2023-04-06T12:58:42;13.00;99.90
13744;DHT22;6943;52.368;9.966;2023-04-06T13:01:08;13.00;99.90
13744;DHT22;6943;52.368;9.966;2023-04-06T13:03:34;13.00;99.90
13744;DHT22;6943;52.368;9.966;2023-04-06T13:06:01;12.90;99.90
13744;DHT22;6943;52.368;9.966;2023-04-06T13:08:26;12.70;99.90
13744;DHT22;6943;52.368;9.966;2023-04-06T13:10:53;12.70;99.90
13744;DHT22;6943;52.368;9.966;2023-04-06T13:13:23;12.60;99.90
13744;DHT22;6943;52.368;9.966;2023-04-06T13:15:49;12.60;99.90
13744;DHT22;6943;52.368;9.966;2023-04-06T13:18:14;12.90;99.90
13744;DHT22;6943;52.368;9.966;2023-04-06T13:20:41;12.70;99.90
13744;DHT22;6943;52.368;9.966;2023-04-06T13:23:07;12.70;99.90
13744;DHT22;6943;52.368;9.966;2023-04-06T13:25:32;12.70;99.90
13744;DHT22;6943;52.368;9.966;2023-04-06T13:27:58;12.60;99.90
13744;DHT22;6943;52.368;9.966;2023-04-06T13:30:24;12.60;99.90
13744;DHT22;6943;52.368;9.966;2023-04-06T13:32:50;12.50;99.90
13744;DHT22;6943;52.368;9.966;2023-04-06T13:35:15;12.60;99.90
13744;DHT22;6943;52.368;9.966;2023-04-06T13:37:42;12.70;99.90
13744;DHT22;6943;52.368;9.966;2023-04-06T13:40:08;12.80;99.90
13744;DHT22;6943;52.368;9.966;2023-04-06T13:42:33;13.00;99.90
13744;DHT22;6943;52.368;9.966;2023-04-06T13:45:00;12.80;99.90
13744;DHT22;6943;52.368;9.966;2023-04-06T13:47:26;13.00;99.90
13744;DHT22;6943;52.368;9.966;2023-04-06T13:49:51;13.10;99.90
13744;DHT22;6943;52.368;9.966;2023-04-06T13:52:18;13.00;99.90
13744;DHT22;6943;52.368;9.966;2023-04-06T13:54:44;13.00;99.90
13744;DHT22;6943;52.368;9.966;2023-04-06T13:57:10;12.90;99.90
13744;DHT22;6943;52.368;9.966;2023-04-06T13:59:36;13.10;99.90
13744;DHT22;6943;52.368;9.966;2023-04-06T14:02:02;13.20;99.90
13744;DHT22;6943;52.368;9.966;2023-04-06T14:04:28;13.30;99.90
13744;DHT22;6943;52.368;9.966;2023-04-06T14:06:54;13.60;99.90
13744;DHT22;6943;52.368;9.966;2023-04-06T14:09:20;13.50;99.90
13744;DHT22;6943;52.368;9.966;2023-04-06T14:11:46;13.40;99.90
13744;DHT22;6943;52.368;9.966;2023-04-06T14:14:11;13.30;99.90
13744;DHT22;6943;52.368;9.966;2023-04-06T14:16:37;13.30;99.90
13744;DHT22;6943;52.368;9.966;2023-04-06T14:19:02;13.10;99.90
13744;DHT22;6943;52.368;9.966;2023-04-06T14:21:28;13.30;99.90
13744;DHT22;6943;52.368;9.966;2023-04-06T14:23:53;13.60;99.90
13744;DHT22;6943;52.368;9.966;2023-04-06T14:26:19;13.20;99.90
13744;DHT22;6943;52.368;9.966;2023-04-06T14:28:45;13.20;99.90
13744;DHT22;6943;52.368;9.966;2023-04-06T14:31:14;13.30;99.90
13744;DHT22;6943;52.368;9.966;2023-04-06T14:33:41;13.20;99.90
13744;DHT22;6943;52.368;9.966;2023-04-06T14:36:08;13.20;99.90
13744;DHT22;6943;52.368;9.966;2023-04-06T14:38:33;13.00;99.90
13744;DHT22;6943;52.368;9.966;2023-04-06T14:40:59;13.10;99.90
13744;DHT22;6943;52.368;9.966;2023-04-06T14:43:24;13.20;99.90
13744;DHT22;6943;52.368;9.966;2023-04-06T14:45:51;13.20;99.90
13744;DHT22;6943;52.368;9.966;2023-04-06T14:48:16;13.20;99.90
13744;DHT22;6943;52.368;9.966;2023-04-06T14:50:52;13.00;99.90
13744;DHT22;6943;52.368;9.966;2023-04-06T14:53:18;13.00;99.90
13744;DHT22;6943;52.368;9.966;2023-04-06T14:55:44;13.20;99.90
13744;DHT22;6943;52.368;9.966;2023-04-06T14:58:09;13.20;99.90
13744;DHT22;6943;52.368;9.966;2023-04-06T15:00:37;13.20;99.90
13744;DHT22;6943;52.368;9.966;2023-04-06T15:03:03;13.00;99.90
13744;DHT22;6943;52.368;9.966;2023-04-06T15:05:28;13.10;99.90
13744;DHT22;6943;52.368;9.966;2023-04-06T15:07:54;13.00;99.90
13744;DHT22;6943;52.368;9.966;2023-04-06T15:10:19;13.10;99.90
13744;DHT22;6943;52.368;9.966;2023-04-06T15:12:45;13.00;99.90
13744;DHT22;6943;52.368;9.966;2023-04-06T15:15:10;13.00;99.90
13744;DHT22;6943;52.368;9.966;2023-04-06T15:17:36;13.10;99.90
13744;DHT22;6943;52.368;9.966;2023-04-06T15:20:01;13.10;99.90
13744;DHT22;6943;52.368;9.966;2023-04-06T15:22:28;13.20;99.90
13744;DHT22;6943;52.368;9.966;2023-04-06T15:24:53;13.20;99.90
13744;DHT22;6943;52.368;9.966;2023-04-06T15:27:19;12.90;99.90
13744;DHT22;6943;52.368;9.966;2023-04-06T15:29:44;13.20;99.90
13744;DHT22;6943;52.368;9.966;2023-04-06T15:32:10;13.20;99.90
13744;DHT22;6943;52.368;9.966;2023-04-06T15:34:35;13.20;99.90
13744;DHT22;6943;52.368;9.966;2023-04-06T15:37:01;13.10;99.90
13744;DHT22;6943;52.368;9.966;2023-04-06T15:39:27;13.00;99.90
13744;DHT22;6943;52.368;9.966;2023-04-06T15:41:53;12.90;99.90
13744;DHT22;6943;52.368;9.966;2023-04-06T15:44:18;13.00;99.90
13744;DHT22;6943;52.368;9.966;2023-04-06T15:46:44;13.10;99.90
13744;DHT22;6943;52.368;9.966;2023-04-06T15:49:10;13.00;99.90
13744;DHT22;6943;52.368;9.966;2023-04-06T15:51:36;13.00;99.90